sensor_id;sensor_type;location;lat;lon;timestamp;pressure;altitude;pressure_sealevel;temperature;humidity
65280;BME280;51878;55.748;48.742;2022-12-18T00:01:21;99549.88;;;-4.85;100.00
65280;BME280;51878;55.748;48.742;2022-12-18T00:03:50;99509.66;;;-5.06;100.00
65280;BME280;51878;55.748;48.742;2022-12-18T00:06:19;99540.06;;;-4.83;100.00
65280;BME280;51878;55.748;48.742;2022-12-18T00:08:47;99545.09;;;-4.79;100.00
65280;BME280;51878;55.748;48.742;2022-12-18T00:11:16;99470.16;;;-5.09;100.00
65280;BME280;51878;55.748;48.742;2022-12-18T00:13:43;99519.03;;;-4.85;100.00
65280;BME280;51878;55.748;48.742;2022-12-18T00:16:13;99514.16;;;-4.92;100.00
65280;BME280;51878;55.748;48.742;2022-12-18T00:18:41;99536.56;;;-4.84;100.00
65280;BME280;51878;55.748;48.742;2022-12-18T00:21:10;99519.78;;;-4.99;100.00
65280;BME280;51878;55.748;48.742;2022-12-18T00:23:39;99487.66;;;-5.07;100.00
65280;BME280;51878;55.748;48.742;2022-12-18T00:26:30;99506.16;;;-4.91;100.00
65280;BME280;51878;55.748;48.742;2022-12-18T00:28:59;99479.63;;;-5.05;100.00
65280;BME280;51878;55.748;48.742;2022-12-18T00:31:27;99518.25;;;-4.87;100.00
65280;BME280;51878;55.748;48.742;2022-12-18T00:33:55;99477.16;;;-4.92;100.00
65280;BME280;51878;55.748;48.742;2022-12-18T00:36:26;99435.59;;;-5.21;100.00
65280;BME280;51878;55.748;48.742;2022-12-18T00:38:55;99429.28;;;-5.18;100.00
65280;BME280;51878;55.748;48.742;2022-12-18T00:41:22;99473.38;;;-4.88;100.00
65280;BME280;51878;55.748;48.742;2022-12-18T00:44:10;99471.84;;;-4.92;100.00
65280;BME280;51878;55.748;48.742;2022-12-18T00:46:38;99429.78;;;-5.11;100.00
65280;BME280;51878;55.748;48.742;2022-12-18T00:49:06;99434.44;;;-5.01;100.00
65280;BME280;51878;55.748;48.742;2022-12-18T00:51:33;99453.28;;;-4.91;100.00
65280;BME280;51878;55.748;48.742;2022-12-18T00:54:00;99447.06;;;-5.06;100.00
65280;BME280;51878;55.748;48.742;2022-12-18T00:56:27;99411.53;;;-5.16;100.00
65280;BME280;51878;55.748;48.742;2022-12-18T00:58:54;99403.97;;;-5.22;100.00
65280;BME280;51878;55.748;48.742;2022-12-18T01:01:21;99411.94;;;-5.08;100.00
65280;BME280;51878;55.748;48.742;2022-12-18T01:03:49;99427.00;;;-4.94;100.00
65280;BME280;51878;55.748;48.742;2022-12-18T01:06:16;99400.03;;;-5.15;100.00
65280;BME280;51878;55.748;48.742;2022-12-18T01:08:44;99399.28;;;-5.17;100.00
65280;BME280;51878;55.748;48.742;2022-12-18T01:11:14;99452.06;;;-4.85;100.00
65280;BME280;51878;55.748;48.742;2022-12-18T01:13:42;99441.47;;;-4.85;100.00
65280;BME280;51878;55.748;48.742;2022-12-18T01:16:12;99412.53;;;-5.03;100.00
65280;BME280;51878;55.748;48.742;2022-12-18T01:18:39;99408.41;;;-4.92;100.00
65280;BME280;51878;55.748;48.742;2022-12-18T01:21:12;99420.78;;;-4.93;100.00
65280;BME280;51878;55.748;48.742;2022-12-18T01:23:39;99384.31;;;-5.02;100.00
65280;BME280;51878;55.748;48.742;2022-12-18T01:26:09;99377.47;;;-4.90;100.00
65280;BME280;51878;55.748;48.742;2022-12-18T01:28:37;99321.09;;;-5.35;100.00
65280;BME280;51878;55.748;48.742;2022-12-18T01:31:16;99386.44;;;-4.93;100.00
65280;BME280;51878;55.748;48.742;2022-12-18T01:33:43;99317.22;;;-5.30;100.00
65280;BME280;51878;55.748;48.742;2022-12-18T01:38:45;99322.56;;;-5.01;100.00
65280;BME280;51878;55.748;48.742;2022-12-18T01:41:15;99341.28;;;-4.90;100.00
65280;BME280;51878;55.748;48.742;2022-12-18T01:43:51;99336.41;;;-4.96;100.00
65280;BME280;51878;55.748;48.742;2022-12-18T01:46:20;99324.47;;;-5.03;100.00
65280;BME280;51878;55.748;48.742;2022-12-18T01:48:50;99331.41;;;-4.86;100.00
65280;BME280;51878;55.748;48.742;2022-12-18T01:51:18;99258.84;;;-5.25;100.00
65280;BME280;51878;55.748;48.742;2022-12-18T01:53:47;99310.81;;;-4.95;100.00
65280;BME280;51878;55.748;48.742;2022-12-18T01:56:17;99313.44;;;-4.95;100.00
65280;BME280;51878;55.748;48.742;2022-12-18T01:58:52;99329.69;;;-4.87;100.00
65280;BME280;51878;55.748;48.742;2022-12-18T02:01:24;99290.78;;;-5.00;100.00
65280;BME280;51878;55.748;48.742;2022-12-18T02:03:51;99229.97;;;-5.28;100.00
65280;BME280;51878;55.748;48.742;2022-12-18T02:06:36;99272.75;;;-4.93;100.00
65280;BME280;51878;55.748;48.742;2022-12-18T02:09:19;99232.59;;;-5.14;100.00
65280;BME280;51878;55.748;48.742;2022-12-18T02:14:38;99169.47;;;-5.47;100.00
65280;BME280;51878;55.748;48.742;2022-12-18T02:17:20;99241.03;;;-4.93;100.00
65280;BME280;51878;55.748;48.742;2022-12-18T02:20:13;99250.97;;;-4.82;100.00
65280;BME280;51878;55.748;48.742;2022-12-18T02:26:04;99168.63;;;-5.19;100.00
65280;BME280;51878;55.748;48.742;2022-12-18T02:28:41;99176.84;;;-5.09;100.00
65280;BME280;51878;55.748;48.742;2022-12-18T02:31:14;99162.91;;;-5.11;100.00
65280;BME280;51878;55.748;48.742;2022-12-18T02:33:44;99180.78;;;-4.88;100.00
65280;BME280;51878;55.748;48.742;2022-12-18T02:36:12;99103.72;;;-5.23;100.00
65280;BME280;51878;55.748;48.742;2022-12-18T02:38:42;99136.34;;;-5.10;100.00
65280;BME280;51878;55.748;48.742;2022-12-18T02:41:11;99154.47;;;-4.89;100.00
65280;BME280;51878;55.748;48.742;2022-12-18T02:43:42;99160.09;;;-4.81;100.00
65280;BME280;51878;55.748;48.742;2022-12-18T02:46:34;99143.91;;;-4.89;100.00
65280;BME280;51878;55.748;48.742;2022-12-18T02:54:57;99132.53;;;-4.77;100.00
65280;BME280;51878;55.748;48.742;2022-12-18T03:00:20;99097.25;;;-4.90;100.00
65280;BME280;51878;55.748;48.742;2022-12-18T03:02:56;99112.66;;;-4.83;100.00
65280;BME280;51878;55.748;48.742;2022-12-18T03:05:36;99054.66;;;-5.13;100.00
65280;BME280;51878;55.748;48.742;2022-12-18T03:08:12;99036.38;;;-5.30;100.00
65280;BME280;51878;55.748;48.742;2022-12-18T03:10:45;99113.84;;;-4.74;100.00
65280;BME280;51878;55.748;48.742;2022-12-18T03:13:25;99078.84;;;-4.92;100.00
65280;BME280;51878;55.748;48.742;2022-12-18T03:15:55;99049.16;;;-5.10;100.00
65280;BME280;51878;55.748;48.742;2022-12-18T03:18:27;99060.34;;;-4.92;100.00
65280;BME280;51878;55.748;48.742;2022-12-18T03:20:59;99021.22;;;-5.14;100.00
65280;BME280;51878;55.748;48.742;2022-12-18T03:23:29;99105.91;;;-4.74;100.00
65280;BME280;51878;55.748;48.742;2022-12-18T03:26:02;99049.38;;;-4.86;100.00
65280;BME280;51878;55.748;48.742;2022-12-18T03:28:37;99032.91;;;-4.77;100.00
65280;BME280;51878;55.748;48.742;2022-12-18T03:31:07;99000.44;;;-5.06;100.00
65280;BME280;51878;55.748;48.742;2022-12-18T03:33:46;99028.06;;;-4.70;100.00
65280;BME280;51878;55.748;48.742;2022-12-18T03:36:14;99006.28;;;-4.73;100.00
65280;BME280;51878;55.748;48.742;2022-12-18T03:38:41;99000.59;;;-4.54;100.00
65280;BME280;51878;55.748;48.742;2022-12-18T03:46:58;98953.13;;;-4.43;100.00
65280;BME280;51878;55.748;48.742;2022-12-18T03:49:35;98938.53;;;-4.49;100.00
65280;BME280;51878;55.748;48.742;2022-12-18T03:52:12;98948.38;;;-4.38;100.00
65280;BME280;51878;55.748;48.742;2022-12-18T03:54:42;98860.00;;;-4.87;100.00
65280;BME280;51878;55.748;48.742;2022-12-18T03:57:14;98923.41;;;-4.34;100.00
65280;BME280;51878;55.748;48.742;2022-12-18T03:59:44;98869.25;;;-4.54;100.00
65280;BME280;51878;55.748;48.742;2022-12-18T04:02:13;98895.25;;;-4.35;100.00
65280;BME280;51878;55.748;48.742;2022-12-18T04:04:43;98814.44;;;-4.65;100.00
65280;BME280;51878;55.748;48.742;2022-12-18T04:07:11;98818.25;;;-4.56;100.00
65280;BME280;51878;55.748;48.742;2022-12-18T04:09:41;98846.69;;;-4.34;100.00
65280;BME280;51878;55.748;48.742;2022-12-18T04:12:08;98812.00;;;-4.55;100.00
65280;BME280;51878;55.748;48.742;2022-12-18T04:14:36;98799.50;;;-4.53;100.00
65280;BME280;51878;55.748;48.742;2022-12-18T04:17:03;98847.94;;;-4.27;100.00
65280;BME280;51878;55.748;48.742;2022-12-18T04:19:30;98835.34;;;-4.23;100.00
65280;BME280;51878;55.748;48.742;2022-12-18T04:21:57;98804.28;;;-4.45;100.00
65280;BME280;51878;55.748;48.742;2022-12-18T04:24:24;98829.59;;;-4.17;100.00
65280;BME280;51878;55.748;48.742;2022-12-18T04:26:51;98843.56;;;-4.15;100.00
65280;BME280;51878;55.748;48.742;2022-12-18T04:29:18;98808.91;;;-4.36;100.00
65280;BME280;51878;55.748;48.742;2022-12-18T04:31:45;98846.13;;;-4.13;100.00
65280;BME280;51878;55.748;48.742;2022-12-18T04:34:12;98850.66;;;-4.16;100.00
65280;BME280;51878;55.748;48.742;2022-12-18T04:36:39;98874.03;;;-3.97;100.00
65280;BME280;51878;55.748;48.742;2022-12-18T04:39:06;98884.47;;;-3.82;100.00
65280;BME280;51878;55.748;48.742;2022-12-18T04:41:33;98844.75;;;-4.19;100.00
65280;BME280;51878;55.748;48.742;2022-12-18T04:44:00;98879.44;;;-3.98;100.00
65280;BME280;51878;55.748;48.742;2022-12-18T04:46:27;98842.63;;;-4.14;100.00
65280;BME280;51878;55.748;48.742;2022-12-18T04:48:54;98915.22;;;-3.56;100.00
65280;BME280;51878;55.748;48.742;2022-12-18T04:51:21;98867.59;;;-3.68;100.00
65280;BME280;51878;55.748;48.742;2022-12-18T04:53:52;98876.63;;;-3.47;100.00
65280;BME280;51878;55.748;48.742;2022-12-18T04:56:19;98848.56;;;-3.86;100.00
65280;BME280;51878;55.748;48.742;2022-12-18T04:58:46;98901.22;;;-3.45;100.00
65280;BME280;51878;55.748;48.742;2022-12-18T05:01:15;98905.50;;;-3.31;100.00
65280;BME280;51878;55.748;48.742;2022-12-18T05:03:42;98905.72;;;-3.34;100.00
65280;BME280;51878;55.748;48.742;2022-12-18T05:06:10;98875.50;;;-3.32;100.00
65280;BME280;51878;55.748;48.742;2022-12-18T05:08:37;98841.75;;;-3.41;100.00
65280;BME280;51878;55.748;48.742;2022-12-18T05:11:12;98833.44;;;-3.36;100.00
65280;BME280;51878;55.748;48.742;2022-12-18T05:13:43;98843.63;;;-3.19;100.00
65280;BME280;51878;55.748;48.742;2022-12-18T05:16:12;98832.06;;;-3.18;100.00
65280;BME280;51878;55.748;48.742;2022-12-18T05:18:40;98832.66;;;-3.25;100.00
65280;BME280;51878;55.748;48.742;2022-12-18T05:21:07;98795.16;;;-3.32;100.00
65280;BME280;51878;55.748;48.742;2022-12-18T05:23:34;98809.91;;;-3.17;100.00
65280;BME280;51878;55.748;48.742;2022-12-18T05:26:03;98789.09;;;-3.10;100.00
65280;BME280;51878;55.748;48.742;2022-12-18T05:28:32;98792.69;;;-3.11;100.00
65280;BME280;51878;55.748;48.742;2022-12-18T05:31:01;98766.28;;;-3.24;100.00
65280;BME280;51878;55.748;48.742;2022-12-18T05:33:31;98754.31;;;-3.29;100.00
65280;BME280;51878;55.748;48.742;2022-12-18T05:36:00;98781.13;;;-3.10;100.00
65280;BME280;51878;55.748;48.742;2022-12-18T05:38:31;98772.56;;;-3.02;100.00
65280;BME280;51878;55.748;48.742;2022-12-18T05:40:58;98748.00;;;-3.04;100.00
65280;BME280;51878;55.748;48.742;2022-12-18T05:43:26;98730.28;;;-3.04;100.00
65280;BME280;51878;55.748;48.742;2022-12-18T05:45:54;98651.53;;;-3.48;100.00
65280;BME280;51878;55.748;48.742;2022-12-18T05:48:21;98722.34;;;-2.81;100.00
65280;BME280;51878;55.748;48.742;2022-12-18T05:50:49;98670.25;;;-3.16;100.00
65280;BME280;51878;55.748;48.742;2022-12-18T05:53:19;98689.44;;;-3.01;100.00
65280;BME280;51878;55.748;48.742;2022-12-18T05:55:47;98667.97;;;-3.09;100.00
65280;BME280;51878;55.748;48.742;2022-12-18T05:58:14;98617.81;;;-3.46;100.00
65280;BME280;51878;55.748;48.742;2022-12-18T06:00:45;98694.75;;;-2.90;100.00
65280;BME280;51878;55.748;48.742;2022-12-18T06:03:13;98635.22;;;-3.08;100.00
65280;BME280;51878;55.748;48.742;2022-12-18T06:05:43;98630.66;;;-3.06;100.00
65280;BME280;51878;55.748;48.742;2022-12-18T06:08:11;98632.69;;;-2.99;100.00
65280;BME280;51878;55.748;48.742;2022-12-18T06:10:39;98541.38;;;-3.51;100.00
65280;BME280;51878;55.748;48.742;2022-12-18T06:13:07;98581.97;;;-3.17;100.00
65280;BME280;51878;55.748;48.742;2022-12-18T06:15:36;98616.72;;;-2.76;100.00
65280;BME280;51878;55.748;48.742;2022-12-18T06:18:04;98588.66;;;-2.79;100.00
65280;BME280;51878;55.748;48.742;2022-12-18T06:20:31;98556.75;;;-2.88;100.00
65280;BME280;51878;55.748;48.742;2022-12-18T06:22:59;98579.84;;;-2.79;100.00
65280;BME280;51878;55.748;48.742;2022-12-18T06:25:26;98567.66;;;-2.71;100.00
65280;BME280;51878;55.748;48.742;2022-12-18T06:27:54;98550.22;;;-2.84;100.00
65280;BME280;51878;55.748;48.742;2022-12-18T06:30:21;98598.59;;;-2.48;100.00
65280;BME280;51878;55.748;48.742;2022-12-18T06:32:49;98581.47;;;-2.44;100.00
65280;BME280;51878;55.748;48.742;2022-12-18T06:35:22;98601.69;;;-2.43;100.00
65280;BME280;51878;55.748;48.742;2022-12-18T06:37:49;98574.25;;;-2.65;100.00
65280;BME280;51878;55.748;48.742;2022-12-18T06:40:16;98607.19;;;-2.67;100.00
65280;BME280;51878;55.748;48.742;2022-12-18T06:42:43;98660.81;;;-2.41;100.00
65280;BME280;51878;55.748;48.742;2022-12-18T06:45:10;98623.94;;;-2.56;100.00
65280;BME280;51878;55.748;48.742;2022-12-18T06:47:38;98622.59;;;-2.50;100.00
65280;BME280;51878;55.748;48.742;2022-12-18T06:50:05;98605.44;;;-2.46;100.00
65280;BME280;51878;55.748;48.742;2022-12-18T06:52:33;98610.13;;;-2.38;100.00
65280;BME280;51878;55.748;48.742;2022-12-18T06:55:00;98617.81;;;-2.24;100.00
65280;BME280;51878;55.748;48.742;2022-12-18T06:57:28;98628.94;;;-1.98;100.00
65280;BME280;51878;55.748;48.742;2022-12-18T06:59:55;98607.81;;;-1.78;100.00
65280;BME280;51878;55.748;48.742;2022-12-18T07:02:22;98524.72;;;-2.11;100.00
65280;BME280;51878;55.748;48.742;2022-12-18T07:04:49;98576.38;;;-1.73;100.00
65280;BME280;51878;55.748;48.742;2022-12-18T07:07:16;98609.16;;;-1.42;100.00
65280;BME280;51878;55.748;48.742;2022-12-18T07:09:43;98616.16;;;-1.41;100.00
65280;BME280;51878;55.748;48.742;2022-12-18T07:12:10;98545.47;;;-1.74;100.00
65280;BME280;51878;55.748;48.742;2022-12-18T07:14:37;98531.88;;;-1.50;100.00
65280;BME280;51878;55.748;48.742;2022-12-18T07:17:04;98559.09;;;-1.37;100.00
65280;BME280;51878;55.748;48.742;2022-12-18T07:19:32;98559.38;;;-1.30;100.00
65280;BME280;51878;55.748;48.742;2022-12-18T07:21:59;98563.53;;;-1.16;100.00
65280;BME280;51878;55.748;48.742;2022-12-18T07:24:30;98562.09;;;-1.20;100.00
65280;BME280;51878;55.748;48.742;2022-12-18T07:26:57;98502.28;;;-1.36;100.00
65280;BME280;51878;55.748;48.742;2022-12-18T07:29:24;98514.50;;;-1.23;100.00
65280;BME280;51878;55.748;48.742;2022-12-18T07:31:51;98564.97;;;-0.93;100.00
65280;BME280;51878;55.748;48.742;2022-12-18T07:34:18;98439.69;;;-1.59;100.00
65280;BME280;51878;55.748;48.742;2022-12-18T07:36:45;98538.25;;;-0.91;100.00
65280;BME280;51878;55.748;48.742;2022-12-18T07:39:12;98471.81;;;-1.32;100.00
65280;BME280;51878;55.748;48.742;2022-12-18T07:41:42;98502.66;;;-1.10;100.00
65280;BME280;51878;55.748;48.742;2022-12-18T07:44:13;98531.69;;;-0.77;100.00
65280;BME280;51878;55.748;48.742;2022-12-18T07:46:40;98480.44;;;-0.89;100.00
65280;BME280;51878;55.748;48.742;2022-12-18T07:49:07;98473.28;;;-0.89;100.00
65280;BME280;51878;55.748;48.742;2022-12-18T07:51:34;98473.84;;;-0.85;100.00
65280;BME280;51878;55.748;48.742;2022-12-18T07:54:01;98443.31;;;-1.00;100.00
65280;BME280;51878;55.748;48.742;2022-12-18T07:56:28;98403.81;;;-1.25;100.00
65280;BME280;51878;55.748;48.742;2022-12-18T07:58:57;98363.66;;;-1.21;100.00
65280;BME280;51878;55.748;48.742;2022-12-18T08:01:25;98463.06;;;-0.74;100.00
65280;BME280;51878;55.748;48.742;2022-12-18T08:03:53;98451.16;;;-0.89;100.00
65280;BME280;51878;55.748;48.742;2022-12-18T08:06:20;98406.22;;;-0.92;100.00
65280;BME280;51878;55.748;48.742;2022-12-18T08:08:51;98420.78;;;-0.87;100.00
65280;BME280;51878;55.748;48.742;2022-12-18T08:11:18;98460.81;;;-0.69;100.00
65280;BME280;51878;55.748;48.742;2022-12-18T08:13:45;98414.75;;;-0.98;100.00
65280;BME280;51878;55.748;48.742;2022-12-18T08:16:12;98424.28;;;-0.86;100.00
65280;BME280;51878;55.748;48.742;2022-12-18T08:18:39;98430.16;;;-0.82;100.00
65280;BME280;51878;55.748;48.742;2022-12-18T08:21:13;98356.78;;;-1.24;100.00
65280;BME280;51878;55.748;48.742;2022-12-18T08:23:42;98462.09;;;-0.63;100.00
65280;BME280;51878;55.748;48.742;2022-12-18T08:26:10;98419.94;;;-0.68;100.00
65280;BME280;51878;55.748;48.742;2022-12-18T08:28:38;98433.38;;;-0.69;100.00
65280;BME280;51878;55.748;48.742;2022-12-18T08:31:06;98397.66;;;-0.86;100.00
65280;BME280;51878;55.748;48.742;2022-12-18T08:33:33;98395.84;;;-0.76;100.00
65280;BME280;51878;55.748;48.742;2022-12-18T08:36:01;98430.44;;;-0.76;100.00
65280;BME280;51878;55.748;48.742;2022-12-18T08:38:29;98406.50;;;-0.76;100.00
65280;BME280;51878;55.748;48.742;2022-12-18T08:41:06;98452.16;;;-0.61;100.00
65280;BME280;51878;55.748;48.742;2022-12-18T08:43:33;98420.63;;;-0.75;100.00
65280;BME280;51878;55.748;48.742;2022-12-18T08:46:20;98471.06;;;-0.54;100.00
65280;BME280;51878;55.748;48.742;2022-12-18T08:48:50;98432.25;;;-0.67;100.00
65280;BME280;51878;55.748;48.742;2022-12-18T08:51:18;98450.03;;;-0.57;100.00
65280;BME280;51878;55.748;48.742;2022-12-18T08:53:45;98434.06;;;-0.57;100.00
65280;BME280;51878;55.748;48.742;2022-12-18T08:56:14;98422.16;;;-0.53;100.00
65280;BME280;51878;55.748;48.742;2022-12-18T08:58:41;98423.56;;;-0.49;100.00
65280;BME280;51878;55.748;48.742;2022-12-18T09:01:15;98413.03;;;-0.51;100.00
65280;BME280;51878;55.748;48.742;2022-12-18T09:03:42;98397.06;;;-0.51;100.00
65280;BME280;51878;55.748;48.742;2022-12-18T09:06:16;98392.44;;;-0.49;100.00
65280;BME280;51878;55.748;48.742;2022-12-18T09:08:44;98319.72;;;-0.96;100.00
65280;BME280;51878;55.748;48.742;2022-12-18T09:11:20;98367.97;;;-0.62;100.00
65280;BME280;51878;55.748;48.742;2022-12-18T09:13:48;98367.66;;;-0.49;100.00
65280;BME280;51878;55.748;48.742;2022-12-18T09:16:16;98329.47;;;-0.68;100.00
65280;BME280;51878;55.748;48.742;2022-12-18T09:18:43;98334.66;;;-0.66;100.00
65280;BME280;51878;55.748;48.742;2022-12-18T09:21:13;98344.66;;;-0.40;100.00
65280;BME280;51878;55.748;48.742;2022-12-18T09:23:41;98318.56;;;-0.74;100.00
65280;BME280;51878;55.748;48.742;2022-12-18T09:26:08;98359.31;;;-0.27;100.00
65280;BME280;51878;55.748;48.742;2022-12-18T09:28:36;98377.00;;;-0.26;100.00
65280;BME280;51878;55.748;48.742;2022-12-18T09:31:05;98301.28;;;-0.60;100.00
65280;BME280;51878;55.748;48.742;2022-12-18T09:33:35;98296.34;;;-0.55;100.00
65280;BME280;51878;55.748;48.742;2022-12-18T09:36:04;98378.78;;;-0.16;100.00
65280;BME280;51878;55.748;48.742;2022-12-18T09:38:32;98320.88;;;-0.52;100.00
65280;BME280;51878;55.748;48.742;2022-12-18T09:41:04;98335.56;;;-0.48;100.00
65280;BME280;51878;55.748;48.742;2022-12-18T09:43:46;98372.75;;;-0.18;100.00
65280;BME280;51878;55.748;48.742;2022-12-18T09:46:25;98373.19;;;-0.23;100.00
65280;BME280;51878;55.748;48.742;2022-12-18T09:48:57;98382.22;;;-0.44;100.00
65280;BME280;51878;55.748;48.742;2022-12-18T09:51:30;98353.91;;;-0.35;100.00
65280;BME280;51878;55.748;48.742;2022-12-18T09:54:05;98358.50;;;-0.27;100.00
65280;BME280;51878;55.748;48.742;2022-12-18T09:56:40;98368.44;;;-0.19;100.00
65280;BME280;51878;55.748;48.742;2022-12-18T09:59:37;98381.44;;;-0.16;100.00
65280;BME280;51878;55.748;48.742;2022-12-18T10:02:18;98380.72;;;-0.09;100.00
65280;BME280;51878;55.748;48.742;2022-12-18T10:05:35;98342.94;;;-0.22;100.00
65280;BME280;51878;55.748;48.742;2022-12-18T10:07:55;98302.69;;;-0.29;100.00
65280;BME280;51878;55.748;48.742;2022-12-18T10:10:49;98354.50;;;-0.13;100.00
65280;BME280;51878;55.748;48.742;2022-12-18T10:24:35;98314.84;;;-0.16;100.00
65280;BME280;51878;55.748;48.742;2022-12-18T10:27:26;98326.00;;;-0.03;100.00
65280;BME280;51878;55.748;48.742;2022-12-18T10:29:54;98343.13;;;-0.06;100.00
65280;BME280;51878;55.748;48.742;2022-12-18T10:32:24;98331.78;;;-0.08;100.00
65280;BME280;51878;55.748;48.742;2022-12-18T10:34:54;98271.88;;;-0.31;100.00
65280;BME280;51878;55.748;48.742;2022-12-18T10:37:28;98289.25;;;-0.27;100.00
65280;BME280;51878;55.748;48.742;2022-12-18T10:40:24;98313.78;;;0.04;100.00
65280;BME280;51878;55.748;48.742;2022-12-18T10:43:12;98306.66;;;0.05;100.00
65280;BME280;51878;55.748;48.742;2022-12-18T10:45:39;98254.72;;;-0.47;100.00
65280;BME280;51878;55.748;48.742;2022-12-18T10:48:21;98312.09;;;0.03;100.00
65280;BME280;51878;55.748;48.742;2022-12-18T10:50:50;98316.75;;;0.01;100.00
65280;BME280;51878;55.748;48.742;2022-12-18T10:53:40;98293.81;;;-0.10;100.00
65280;BME280;51878;55.748;48.742;2022-12-18T10:56:08;98332.44;;;0.04;100.00
65280;BME280;51878;55.748;48.742;2022-12-18T10:58:37;98318.50;;;0.10;100.00
65280;BME280;51878;55.748;48.742;2022-12-18T11:01:11;98318.63;;;0.18;100.00
65280;BME280;51878;55.748;48.742;2022-12-18T11:03:47;98259.75;;;-0.16;100.00
65280;BME280;51878;55.748;48.742;2022-12-18T11:06:28;98236.44;;;-0.32;100.00
65280;BME280;51878;55.748;48.742;2022-12-18T11:09:00;98246.31;;;-0.14;100.00
65280;BME280;51878;55.748;48.742;2022-12-18T11:11:31;98276.22;;;-0.03;100.00
65280;BME280;51878;55.748;48.742;2022-12-18T11:16:32;98306.28;;;0.17;100.00
65280;BME280;51878;55.748;48.742;2022-12-18T11:19:36;98330.47;;;0.34;100.00
65280;BME280;51878;55.748;48.742;2022-12-18T11:22:26;98329.75;;;0.32;100.00
65280;BME280;51878;55.748;48.742;2022-12-18T11:27:48;98281.44;;;0.17;100.00
65280;BME280;51878;55.748;48.742;2022-12-18T11:30:36;98309.72;;;0.28;100.00
65280;BME280;51878;55.748;48.742;2022-12-18T11:33:11;98302.66;;;0.36;100.00
65280;BME280;51878;55.748;48.742;2022-12-18T11:35:49;98319.66;;;0.35;100.00
65280;BME280;51878;55.748;48.742;2022-12-18T11:38:26;98280.41;;;0.28;100.00
65280;BME280;51878;55.748;48.742;2022-12-18T11:40:58;98303.91;;;0.42;100.00
65280;BME280;51878;55.748;48.742;2022-12-18T11:46:24;98294.28;;;0.31;100.00
65280;BME280;51878;55.748;48.742;2022-12-18T11:49:32;98292.09;;;0.45;100.00
65280;BME280;51878;55.748;48.742;2022-12-18T11:52:09;98245.16;;;0.16;100.00
65280;BME280;51878;55.748;48.742;2022-12-18T11:54:41;98301.38;;;0.40;100.00
65280;BME280;51878;55.748;48.742;2022-12-18T11:57:46;98266.38;;;0.26;100.00
65280;BME280;51878;55.748;48.742;2022-12-18T12:00:21;98240.78;;;0.15;100.00
65280;BME280;51878;55.748;48.742;2022-12-18T12:09:08;98281.88;;;0.40;100.00
65280;BME280;51878;55.748;48.742;2022-12-18T12:14:57;98290.09;;;0.47;100.00
65280;BME280;51878;55.748;48.742;2022-12-18T12:18:04;98295.28;;;0.48;100.00
65280;BME280;51878;55.748;48.742;2022-12-18T12:20:28;98299.03;;;0.55;100.00
65280;BME280;51878;55.748;48.742;2022-12-18T12:28:59;98230.97;;;0.15;100.00
65280;BME280;51878;55.748;48.742;2022-12-18T12:36:47;98302.91;;;0.61;100.00
65280;BME280;51878;55.748;48.742;2022-12-18T12:39:21;98212.25;;;0.07;100.00
65280;BME280;51878;55.748;48.742;2022-12-18T12:41:58;98252.69;;;0.38;100.00
65280;BME280;51878;55.748;48.742;2022-12-18T12:44:49;98218.50;;;0.16;100.00
65280;BME280;51878;55.748;48.742;2022-12-18T12:47:29;98281.19;;;0.56;100.00
65280;BME280;51878;55.748;48.742;2022-12-18T12:50:01;98183.41;;;0.03;100.00
65280;BME280;51878;55.748;48.742;2022-12-18T12:52:51;98216.81;;;0.15;100.00
65280;BME280;51878;55.748;48.742;2022-12-18T12:55:22;98229.31;;;0.14;100.00
65280;BME280;51878;55.748;48.742;2022-12-18T12:58:11;98256.88;;;0.41;100.00
65280;BME280;51878;55.748;48.742;2022-12-18T13:00:49;98224.06;;;0.05;100.00
65280;BME280;51878;55.748;48.742;2022-12-18T13:06:43;98206.59;;;0.10;100.00
65280;BME280;51878;55.748;48.742;2022-12-18T13:09:12;98296.41;;;0.64;100.00
65280;BME280;51878;55.748;48.742;2022-12-18T13:11:42;98078.56;;;-0.60;100.00
65280;BME280;51878;55.748;48.742;2022-12-18T13:14:33;98212.72;;;0.38;100.00
65280;BME280;51878;55.748;48.742;2022-12-18T13:17:33;98303.81;;;0.70;100.00
65280;BME280;51878;55.748;48.742;2022-12-18T13:20:10;98298.03;;;0.74;100.00
65280;BME280;51878;55.748;48.742;2022-12-18T13:25:32;98300.47;;;0.68;100.00
65280;BME280;51878;55.748;48.742;2022-12-18T13:28:07;98320.41;;;0.64;100.00
65280;BME280;51878;55.748;48.742;2022-12-18T13:41:01;98272.41;;;0.46;100.00
65280;BME280;51878;55.748;48.742;2022-12-18T13:44:22;98290.84;;;0.57;100.00
65280;BME280;51878;55.748;48.742;2022-12-18T13:46:52;98280.03;;;0.40;100.00
65280;BME280;51878;55.748;48.742;2022-12-18T13:49:28;98233.25;;;0.10;100.00
65280;BME280;51878;55.748;48.742;2022-12-18T13:51:59;98183.78;;;-0.38;100.00
65280;BME280;51878;55.748;48.742;2022-12-18T13:54:35;98292.38;;;0.59;100.00
65280;BME280;51878;55.748;48.742;2022-12-18T13:57:05;98232.34;;;0.19;100.00
65280;BME280;51878;55.748;48.742;2022-12-18T13:59:37;98245.53;;;0.39;100.00
65280;BME280;51878;55.748;48.742;2022-12-18T14:02:27;98295.72;;;0.61;100.00
65280;BME280;51878;55.748;48.742;2022-12-18T14:04:54;98229.69;;;0.19;100.00
65280;BME280;51878;55.748;48.742;2022-12-18T14:07:24;98258.47;;;0.34;100.00
65280;BME280;51878;55.748;48.742;2022-12-18T14:09:54;98327.44;;;0.65;100.00
65280;BME280;51878;55.748;48.742;2022-12-18T14:12:33;98297.56;;;0.61;100.00
65280;BME280;51878;55.748;48.742;2022-12-18T14:17:57;98312.59;;;0.62;100.00
65280;BME280;51878;55.748;48.742;2022-12-18T14:20:26;98319.22;;;0.58;100.00
65280;BME280;51878;55.748;48.742;2022-12-18T14:22:54;98259.00;;;0.37;100.00
65280;BME280;51878;55.748;48.742;2022-12-18T14:30:37;98295.97;;;0.68;100.00
65280;BME280;51878;55.748;48.742;2022-12-18T14:33:13;98204.50;;;0.14;100.00
65280;BME280;51878;55.748;48.742;2022-12-18T14:41:19;98242.94;;;0.29;100.00